Carbondale, CO (81623)

12:11 PM MDT on April 27, 2017 (GMT -0600)
Tenth and Colorado | | Change Station
Active Advisory: Winter Weather Advisory

Elev 6181 ft 39.40 °N, 107.22 °W | Updated 24 seconds ago

Rain
Rain
50.7 °F
Feels Like 50.7 °F
N
4.9
Wind Variable Wind from West
Gusts 8.3 mph

Today
High -- | Low -- °F
--% Chance of Precip.
Yesterday
High -- | Low -- °F
Precip. -- in
Pressure 29.48 in
Visibility 10.0 miles
Clouds Mostly Cloudy 7000 ft
Dew Point 10 °F
Humidity 19%
Rainfall 0.12 in
Snow Depth Not available.
6:14 AM 7:58 PM
New Moon, 2% visible
METAR KASE 271753Z 34014G23KT 10SM BKN070 05/M01 A2963 RMK AO2 SLP981 60008 T00501011 10072 20000 58006
Pressure 29.48 in
Visibility 10.0 miles
Clouds Mostly Cloudy 7000 ft
Dew Point 10 °F
Humidity 19%
Rainfall 0.12 in
Snow Depth Not available.
6:14 AM 7:58 PM
New Moon, 2% visible
METAR KASE 271753Z 34014G23KT 10SM BKN070 05/M01 A2963 RMK AO2 SLP981 60008 T00501011 10072 20000 58006

Get Your Daily Forecast Email!

Thanks for signing up!

Be on the lookout for a verification email in your inbox.

You'll start receiving severe weather alerts in your inbox..

×

10-Day Weather Forecast

Almanac

Astronomy

Apr. 27, 2017 Rise Set
Actual Time
Civil Twilight
Nautical Twilight
Astronomical Twilight
Moon
Length of Visible Light
Length of Day
Tomorrow will be .
, % of the Moon is Illuminated

Today's Extremes

State Highs State Lows

Community

WunderPhotos

WunderBlog® & News

Nearby

Air Quality

  Air Quality AQ Index Pollutant
Not available.

Snow Depth

Station Depth Elevation

Earthquake Activity

City Distance Mag. Time & Date
Minimum magnitude displayed is 2.5.

Coastal Water Temperatures

Place Temperature

Stations

Nearby Weather Stations

Station Location Temp. Windchill Dew Point Humidity Wind Precip. Elev Updated Type
                   

Watches & Warnings

Winter Weather Advisory
Issued: 11:46 AM MDT Apr. 27, 2017 – National Weather Service

... Winter Weather Advisory remains in effect until midnight MDT
tonight above 8500 feet...

* locations include... Vail.

* Timing... snow showers will continue through midnight... moderate
to heavy at times.

* Snow accumulation... 6 to 10 inches.

* Winds... west 15 to 25 mph with gusts up to 40 mph.

* Visibility... reduced to under a mile at times in moderate snow.

* Impacts... the heavy snow will make many roads impassable and
may produce widespread power outages due to the weight of the
snow on tree limbs and power lines. Strong winds will lead to
blowing snow, reduced visibility, and additional power
outages.

Precautionary/preparedness actions...

A Winter Weather Advisory means that periods of snow and/or
blowing snow will cause travel difficulties. Be prepared for
slippery roads and limited visibilities, and use caution while
driving.